Terminal Aerodrome Forecast
Issued by NWS Boise, ID

Home | Current Version | Previous Version | Text Only | Print | Product List | Glossary On
Versions: 1 2 3 4 5 6 7 8 9 10 11 12 13 14 15 16 17 18 19 20 21 22 23 24 25 26 27 28
000
FTUS45 KBOI 222337
TAFBOI
TAF
KBOI 222337Z 2300/2324 VRB06KT P6SM VCTS FEW050CB SCT100
     FM230400 VRB06KT P6SM BKN120
     FM231900 30015G25KT P6SM VCSH SCT050 BKN100=

USA.gov is the U.S. government's official web portal to all federal, state and local government web resources and services.